sensor_id;sensor_type;location;lat;lon;timestamp;temperature;humidity
10903;DHT22;5504;47.312;11.060;2023-09-08T00:02:07;18.40;93.30
10903;DHT22;5504;47.312;11.060;2023-09-08T00:04:32;18.40;93.40
10903;DHT22;5504;47.312;11.060;2023-09-08T00:06:59;18.30;93.40
10903;DHT22;5504;47.312;11.060;2023-09-08T00:09:25;18.30;93.60
10903;DHT22;5504;47.312;11.060;2023-09-08T00:11:50;18.30;93.70
10903;DHT22;5504;47.312;11.060;2023-09-08T00:14:17;18.20;93.50
10903;DHT22;5504;47.312;11.060;2023-09-08T00:16:42;18.30;93.70
10903;DHT22;5504;47.312;11.060;2023-09-08T00:19:10;18.20;93.50
10903;DHT22;5504;47.312;11.060;2023-09-08T00:21:36;18.20;93.50
10903;DHT22;5504;47.312;11.060;2023-09-08T00:24:02;18.20;93.40
10903;DHT22;5504;47.312;11.060;2023-09-08T00:26:29;18.20;93.60
10903;DHT22;5504;47.312;11.060;2023-09-08T00:28:55;18.20;93.70
10903;DHT22;5504;47.312;11.060;2023-09-08T00:31:21;18.20;93.60
10903;DHT22;5504;47.312;11.060;2023-09-08T00:33:47;18.30;93.70
10903;DHT22;5504;47.312;11.060;2023-09-08T00:36:12;18.20;93.50
10903;DHT22;5504;47.312;11.060;2023-09-08T00:38:38;18.20;93.50
10903;DHT22;5504;47.312;11.060;2023-09-08T00:41:05;18.20;93.40
10903;DHT22;5504;47.312;11.060;2023-09-08T00:43:31;18.10;93.30
10903;DHT22;5504;47.312;11.060;2023-09-08T00:45:57;18.10;93.70
10903;DHT22;5504;47.312;11.060;2023-09-08T00:48:24;18.00;93.70
10903;DHT22;5504;47.312;11.060;2023-09-08T00:50:50;18.00;94.00
10903;DHT22;5504;47.312;11.060;2023-09-08T00:53:17;18.00;93.70
10903;DHT22;5504;47.312;11.060;2023-09-08T00:55:43;18.00;93.70
10903;DHT22;5504;47.312;11.060;2023-09-08T00:58:09;18.00;93.80
10903;DHT22;5504;47.312;11.060;2023-09-08T01:00:36;17.90;93.80
10903;DHT22;5504;47.312;11.060;2023-09-08T01:03:02;17.90;93.90
10903;DHT22;5504;47.312;11.060;2023-09-08T01:05:28;17.90;93.70
10903;DHT22;5504;47.312;11.060;2023-09-08T01:07:54;17.90;93.70
10903;DHT22;5504;47.312;11.060;2023-09-08T01:10:21;17.90;93.70
10903;DHT22;5504;47.312;11.060;2023-09-08T01:12:47;17.80;93.80
10903;DHT22;5504;47.312;11.060;2023-09-08T01:15:13;17.80;93.80
10903;DHT22;5504;47.312;11.060;2023-09-08T01:17:38;17.70;93.90
10903;DHT22;5504;47.312;11.060;2023-09-08T01:20:15;17.70;94.00
10903;DHT22;5504;47.312;11.060;2023-09-08T01:25:22;17.70;93.80
10903;DHT22;5504;47.312;11.060;2023-09-08T01:27:54;17.60;94.10
10903;DHT22;5504;47.312;11.060;2023-09-08T01:30:21;17.60;94.20
10903;DHT22;5504;47.312;11.060;2023-09-08T01:32:49;17.60;94.10
10903;DHT22;5504;47.312;11.060;2023-09-08T01:35:16;17.50;94.10
10903;DHT22;5504;47.312;11.060;2023-09-08T01:37:44;17.50;94.30
10903;DHT22;5504;47.312;11.060;2023-09-08T01:40:10;17.50;94.40
10903;DHT22;5504;47.312;11.060;2023-09-08T01:42:37;17.50;94.40
10903;DHT22;5504;47.312;11.060;2023-09-08T01:45:04;17.50;94.50
10903;DHT22;5504;47.312;11.060;2023-09-08T01:47:30;17.50;94.40
10903;DHT22;5504;47.312;11.060;2023-09-08T01:49:56;17.40;94.40
10903;DHT22;5504;47.312;11.060;2023-09-08T01:52:21;17.40;94.50
10903;DHT22;5504;47.312;11.060;2023-09-08T01:54:47;17.40;94.60
10903;DHT22;5504;47.312;11.060;2023-09-08T01:57:13;17.30;94.60
10903;DHT22;5504;47.312;11.060;2023-09-08T01:59:39;17.30;94.50
10903;DHT22;5504;47.312;11.060;2023-09-08T02:02:05;17.40;94.60
10903;DHT22;5504;47.312;11.060;2023-09-08T02:04:31;17.40;94.60
10903;DHT22;5504;47.312;11.060;2023-09-08T02:06:57;17.40;94.40
10903;DHT22;5504;47.312;11.060;2023-09-08T02:09:38;17.50;94.30
10903;DHT22;5504;47.312;11.060;2023-09-08T02:12:04;17.40;94.00
10903;DHT22;5504;47.312;11.060;2023-09-08T02:14:30;17.30;94.10
10903;DHT22;5504;47.312;11.060;2023-09-08T02:16:56;17.30;94.40
10903;DHT22;5504;47.312;11.060;2023-09-08T02:19:22;17.20;94.40
10903;DHT22;5504;47.312;11.060;2023-09-08T02:21:48;17.20;94.40
10903;DHT22;5504;47.312;11.060;2023-09-08T02:24:14;17.30;94.40
10903;DHT22;5504;47.312;11.060;2023-09-08T02:26:40;17.20;94.20
10903;DHT22;5504;47.312;11.060;2023-09-08T02:29:06;17.10;94.20
10903;DHT22;5504;47.312;11.060;2023-09-08T02:31:32;17.10;94.40
10903;DHT22;5504;47.312;11.060;2023-09-08T02:33:58;17.00;94.50
10903;DHT22;5504;47.312;11.060;2023-09-08T02:36:24;16.90;94.70
10903;DHT22;5504;47.312;11.060;2023-09-08T02:38:53;16.90;95.00
10903;DHT22;5504;47.312;11.060;2023-09-08T02:41:19;16.90;95.00
10903;DHT22;5504;47.312;11.060;2023-09-08T02:43:45;16.80;94.80
10903;DHT22;5504;47.312;11.060;2023-09-08T02:46:11;16.80;94.80
10903;DHT22;5504;47.312;11.060;2023-09-08T02:48:38;16.90;94.90
10903;DHT22;5504;47.312;11.060;2023-09-08T02:51:03;16.90;95.00
10903;DHT22;5504;47.312;11.060;2023-09-08T02:53:30;16.90;94.80
10903;DHT22;5504;47.312;11.060;2023-09-08T02:55:56;16.80;94.60
10903;DHT22;5504;47.312;11.060;2023-09-08T02:58:22;16.80;94.80
10903;DHT22;5504;47.312;11.060;2023-09-08T03:00:48;16.90;94.90
10903;DHT22;5504;47.312;11.060;2023-09-08T03:03:13;16.80;94.50
10903;DHT22;5504;47.312;11.060;2023-09-08T03:05:39;16.70;94.70
10903;DHT22;5504;47.312;11.060;2023-09-08T03:08:05;16.80;94.80
10903;DHT22;5504;47.312;11.060;2023-09-08T03:10:31;16.80;94.60
10903;DHT22;5504;47.312;11.060;2023-09-08T03:13:00;16.70;94.50
10903;DHT22;5504;47.312;11.060;2023-09-08T03:15:26;16.60;94.70
10903;DHT22;5504;47.312;11.060;2023-09-08T03:17:54;16.60;94.80
10903;DHT22;5504;47.312;11.060;2023-09-08T03:20:20;16.60;94.70
10903;DHT22;5504;47.312;11.060;2023-09-08T03:22:46;16.60;94.80
10903;DHT22;5504;47.312;11.060;2023-09-08T03:25:14;16.60;94.70
10903;DHT22;5504;47.312;11.060;2023-09-08T03:27:40;16.60;94.70
10903;DHT22;5504;47.312;11.060;2023-09-08T03:30:06;16.60;94.50
10903;DHT22;5504;47.312;11.060;2023-09-08T03:32:33;16.60;94.60
10903;DHT22;5504;47.312;11.060;2023-09-08T03:34:58;16.60;94.80
10903;DHT22;5504;47.312;11.060;2023-09-08T03:37:24;16.60;94.70
10903;DHT22;5504;47.312;11.060;2023-09-08T03:39:52;16.60;94.60
10903;DHT22;5504;47.312;11.060;2023-09-08T03:42:17;16.50;94.40
10903;DHT22;5504;47.312;11.060;2023-09-08T03:44:43;16.50;94.70
10903;DHT22;5504;47.312;11.060;2023-09-08T03:47:09;16.40;94.90
10903;DHT22;5504;47.312;11.060;2023-09-08T03:49:35;16.40;94.90
10903;DHT22;5504;47.312;11.060;2023-09-08T03:52:01;16.40;94.80
10903;DHT22;5504;47.312;11.060;2023-09-08T03:54:26;16.40;94.80
10903;DHT22;5504;47.312;11.060;2023-09-08T03:56:52;16.30;94.70
10903;DHT22;5504;47.312;11.060;2023-09-08T03:59:17;16.30;94.70
10903;DHT22;5504;47.312;11.060;2023-09-08T04:01:43;16.30;94.80
10903;DHT22;5504;47.312;11.060;2023-09-08T04:04:09;16.30;94.90
10903;DHT22;5504;47.312;11.060;2023-09-08T04:06:34;16.30;95.00
10903;DHT22;5504;47.312;11.060;2023-09-08T04:09:00;16.30;95.10
10903;DHT22;5504;47.312;11.060;2023-09-08T04:11:26;16.30;95.10
10903;DHT22;5504;47.312;11.060;2023-09-08T04:13:52;16.30;94.90
10903;DHT22;5504;47.312;11.060;2023-09-08T04:16:17;16.20;94.90
10903;DHT22;5504;47.312;11.060;2023-09-08T04:18:43;16.20;95.00
10903;DHT22;5504;47.312;11.060;2023-09-08T04:21:10;16.20;95.10
10903;DHT22;5504;47.312;11.060;2023-09-08T04:23:35;16.20;95.10
10903;DHT22;5504;47.312;11.060;2023-09-08T04:26:01;16.20;95.20
10903;DHT22;5504;47.312;11.060;2023-09-08T04:28:27;16.20;95.10
10903;DHT22;5504;47.312;11.060;2023-09-08T04:30:53;16.20;95.10
10903;DHT22;5504;47.312;11.060;2023-09-08T04:33:18;16.20;95.00
10903;DHT22;5504;47.312;11.060;2023-09-08T04:35:44;16.20;95.00
10903;DHT22;5504;47.312;11.060;2023-09-08T04:38:09;16.20;95.00
10903;DHT22;5504;47.312;11.060;2023-09-08T04:40:35;16.20;94.90
10903;DHT22;5504;47.312;11.060;2023-09-08T04:43:01;16.20;95.00
10903;DHT22;5504;47.312;11.060;2023-09-08T04:45:26;16.20;94.80
10903;DHT22;5504;47.312;11.060;2023-09-08T04:47:52;16.20;94.90
10903;DHT22;5504;47.312;11.060;2023-09-08T04:50:18;16.20;95.00
10903;DHT22;5504;47.312;11.060;2023-09-08T04:52:43;16.20;95.00
10903;DHT22;5504;47.312;11.060;2023-09-08T04:55:10;16.10;95.10
10903;DHT22;5504;47.312;11.060;2023-09-08T04:57:36;16.20;95.00
10903;DHT22;5504;47.312;11.060;2023-09-08T05:00:02;16.10;95.00
10903;DHT22;5504;47.312;11.060;2023-09-08T05:02:28;16.10;95.20
10903;DHT22;5504;47.312;11.060;2023-09-08T05:04:54;16.10;95.30
10903;DHT22;5504;47.312;11.060;2023-09-08T05:07:19;16.10;95.30
10903;DHT22;5504;47.312;11.060;2023-09-08T05:09:45;16.10;95.40
10903;DHT22;5504;47.312;11.060;2023-09-08T05:12:11;16.10;95.30
10903;DHT22;5504;47.312;11.060;2023-09-08T05:14:36;16.00;95.40
10903;DHT22;5504;47.312;11.060;2023-09-08T05:17:02;16.00;95.50
10903;DHT22;5504;47.312;11.060;2023-09-08T05:19:28;16.10;95.50
10903;DHT22;5504;47.312;11.060;2023-09-08T05:21:55;16.10;95.70
10903;DHT22;5504;47.312;11.060;2023-09-08T05:24:20;16.10;95.80
10903;DHT22;5504;47.312;11.060;2023-09-08T05:26:47;16.20;95.70
10903;DHT22;5504;47.312;11.060;2023-09-08T05:29:12;16.20;95.80
10903;DHT22;5504;47.312;11.060;2023-09-08T05:31:38;16.20;96.10
10903;DHT22;5504;47.312;11.060;2023-09-08T05:34:04;16.20;95.90
10903;DHT22;5504;47.312;11.060;2023-09-08T05:36:30;16.20;96.00
10903;DHT22;5504;47.312;11.060;2023-09-08T05:38:59;16.20;95.80
10903;DHT22;5504;47.312;11.060;2023-09-08T05:41:24;16.20;96.10
10903;DHT22;5504;47.312;11.060;2023-09-08T05:43:50;16.30;96.10
10903;DHT22;5504;47.312;11.060;2023-09-08T05:46:16;16.30;96.30
10903;DHT22;5504;47.312;11.060;2023-09-08T05:48:42;16.40;96.60
10903;DHT22;5504;47.312;11.060;2023-09-08T05:51:08;16.60;96.60
10903;DHT22;5504;47.312;11.060;2023-09-08T05:53:33;16.80;96.50
10903;DHT22;5504;47.312;11.060;2023-09-08T05:56:01;16.90;96.30
10903;DHT22;5504;47.312;11.060;2023-09-08T05:58:27;17.00;96.10
10903;DHT22;5504;47.312;11.060;2023-09-08T06:00:53;17.10;95.70
10903;DHT22;5504;47.312;11.060;2023-09-08T06:03:19;17.20;95.50
10903;DHT22;5504;47.312;11.060;2023-09-08T06:05:45;17.40;95.30
10903;DHT22;5504;47.312;11.060;2023-09-08T06:08:10;17.60;95.50
10903;DHT22;5504;47.312;11.060;2023-09-08T06:10:38;18.00;95.00
10903;DHT22;5504;47.312;11.060;2023-09-08T06:13:04;18.40;94.60
10903;DHT22;5504;47.312;11.060;2023-09-08T06:15:30;18.80;94.00
10903;DHT22;5504;47.312;11.060;2023-09-08T06:17:56;19.00;93.80
10903;DHT22;5504;47.312;11.060;2023-09-08T06:20:22;19.30;93.60
10903;DHT22;5504;47.312;11.060;2023-09-08T06:22:48;19.50;93.10
10903;DHT22;5504;47.312;11.060;2023-09-08T06:25:14;19.90;92.50
10903;DHT22;5504;47.312;11.060;2023-09-08T06:27:40;20.20;92.30
10903;DHT22;5504;47.312;11.060;2023-09-08T06:30:06;20.70;91.80
10903;DHT22;5504;47.312;11.060;2023-09-08T06:32:32;21.10;91.20
10903;DHT22;5504;47.312;11.060;2023-09-08T06:34:58;21.40;90.60
10903;DHT22;5504;47.312;11.060;2023-09-08T06:37:23;21.70;88.60
10903;DHT22;5504;47.312;11.060;2023-09-08T06:39:49;21.90;88.20
10903;DHT22;5504;47.312;11.060;2023-09-08T06:42:15;22.20;87.30
10903;DHT22;5504;47.312;11.060;2023-09-08T06:44:40;22.40;85.70
10903;DHT22;5504;47.312;11.060;2023-09-08T06:47:06;22.50;84.60
10903;DHT22;5504;47.312;11.060;2023-09-08T06:49:33;22.70;84.30
10903;DHT22;5504;47.312;11.060;2023-09-08T06:51:59;22.80;84.70
10903;DHT22;5504;47.312;11.060;2023-09-08T06:54:24;23.00;83.00
10903;DHT22;5504;47.312;11.060;2023-09-08T06:56:50;23.10;83.60
10903;DHT22;5504;47.312;11.060;2023-09-08T06:59:16;23.40;81.70
10903;DHT22;5504;47.312;11.060;2023-09-08T07:01:42;23.60;80.00
10903;DHT22;5504;47.312;11.060;2023-09-08T07:04:08;23.70;82.30
10903;DHT22;5504;47.312;11.060;2023-09-08T07:06:34;24.00;78.70
10903;DHT22;5504;47.312;11.060;2023-09-08T07:09:01;24.00;76.00
10903;DHT22;5504;47.312;11.060;2023-09-08T07:11:27;24.00;77.60
10903;DHT22;5504;47.312;11.060;2023-09-08T07:13:53;24.10;79.50
10903;DHT22;5504;47.312;11.060;2023-09-08T07:16:18;24.50;78.70
10903;DHT22;5504;47.312;11.060;2023-09-08T07:18:44;24.70;77.70
10903;DHT22;5504;47.312;11.060;2023-09-08T07:21:10;24.90;79.00
10903;DHT22;5504;47.312;11.060;2023-09-08T07:23:35;25.30;75.80
10903;DHT22;5504;47.312;11.060;2023-09-08T07:26:02;25.50;75.40
10903;DHT22;5504;47.312;11.060;2023-09-08T07:28:28;25.40;73.90
10903;DHT22;5504;47.312;11.060;2023-09-08T07:30:53;25.30;72.40
10903;DHT22;5504;47.312;11.060;2023-09-08T07:33:25;25.00;73.90
10903;DHT22;5504;47.312;11.060;2023-09-08T07:35:51;24.90;71.20
10903;DHT22;5504;47.312;11.060;2023-09-08T07:38:16;24.30;72.90
10903;DHT22;5504;47.312;11.060;2023-09-08T07:40:42;24.40;74.40
10903;DHT22;5504;47.312;11.060;2023-09-08T07:43:08;24.90;77.10
10903;DHT22;5504;47.312;11.060;2023-09-08T07:45:33;24.80;71.00
10903;DHT22;5504;47.312;11.060;2023-09-08T07:47:59;25.10;76.00
10903;DHT22;5504;47.312;11.060;2023-09-08T07:50:27;25.30;73.50
10903;DHT22;5504;47.312;11.060;2023-09-08T07:52:54;25.60;75.60
10903;DHT22;5504;47.312;11.060;2023-09-08T07:55:21;26.00;71.70
10903;DHT22;5504;47.312;11.060;2023-09-08T07:57:55;26.00;69.20
10903;DHT22;5504;47.312;11.060;2023-09-08T08:00:20;26.30;73.70
10903;DHT22;5504;47.312;11.060;2023-09-08T08:02:48;26.20;67.70
10903;DHT22;5504;47.312;11.060;2023-09-08T08:05:14;26.60;67.20
10903;DHT22;5504;47.312;11.060;2023-09-08T08:07:42;26.10;67.80
10903;DHT22;5504;47.312;11.060;2023-09-08T08:10:08;26.60;73.20
10903;DHT22;5504;47.312;11.060;2023-09-08T08:12:35;27.30;68.40
10903;DHT22;5504;47.312;11.060;2023-09-08T08:15:01;27.50;70.40
10903;DHT22;5504;47.312;11.060;2023-09-08T08:17:27;27.40;67.00
10903;DHT22;5504;47.312;11.060;2023-09-08T08:19:55;27.40;65.80
10903;DHT22;5504;47.312;11.060;2023-09-08T08:22:21;27.80;70.40
10903;DHT22;5504;47.312;11.060;2023-09-08T08:24:47;27.90;63.60
10903;DHT22;5504;47.312;11.060;2023-09-08T08:27:12;27.20;66.40
10903;DHT22;5504;47.312;11.060;2023-09-08T08:29:39;27.80;68.00
10903;DHT22;5504;47.312;11.060;2023-09-08T08:32:05;28.20;69.60
10903;DHT22;5504;47.312;11.060;2023-09-08T08:34:30;27.40;60.30
10903;DHT22;5504;47.312;11.060;2023-09-08T08:36:56;28.00;64.10
10903;DHT22;5504;47.312;11.060;2023-09-08T08:39:22;27.50;64.10
10903;DHT22;5504;47.312;11.060;2023-09-08T08:41:47;28.20;67.60
10903;DHT22;5504;47.312;11.060;2023-09-08T08:44:15;28.80;65.80
10903;DHT22;5504;47.312;11.060;2023-09-08T08:46:43;28.80;58.90
10903;DHT22;5504;47.312;11.060;2023-09-08T08:49:11;28.60;58.70
10903;DHT22;5504;47.312;11.060;2023-09-08T08:51:38;29.20;63.60
10903;DHT22;5504;47.312;11.060;2023-09-08T08:54:05;28.90;56.40
10903;DHT22;5504;47.312;11.060;2023-09-08T08:56:32;29.10;61.40
10903;DHT22;5504;47.312;11.060;2023-09-08T08:58:58;29.30;61.00
10903;DHT22;5504;47.312;11.060;2023-09-08T09:01:25;29.80;59.80
10903;DHT22;5504;47.312;11.060;2023-09-08T09:03:52;29.30;55.60
10903;DHT22;5504;47.312;11.060;2023-09-08T09:06:18;29.30;58.80
10903;DHT22;5504;47.312;11.060;2023-09-08T09:08:44;29.80;60.30
10903;DHT22;5504;47.312;11.060;2023-09-08T09:11:11;30.10;58.40
10903;DHT22;5504;47.312;11.060;2023-09-08T09:13:37;30.40;59.40
10903;DHT22;5504;47.312;11.060;2023-09-08T09:16:03;30.50;58.80
10903;DHT22;5504;47.312;11.060;2023-09-08T09:18:33;30.70;58.60
10903;DHT22;5504;47.312;11.060;2023-09-08T09:21:00;30.50;59.20
10903;DHT22;5504;47.312;11.060;2023-09-08T09:23:30;30.90;58.90
10903;DHT22;5504;47.312;11.060;2023-09-08T09:25:57;31.20;59.40
10903;DHT22;5504;47.312;11.060;2023-09-08T09:28:23;30.80;55.00
10903;DHT22;5504;47.312;11.060;2023-09-08T09:30:50;30.80;56.70
10903;DHT22;5504;47.312;11.060;2023-09-08T09:33:23;30.30;56.10
10903;DHT22;5504;47.312;11.060;2023-09-08T09:35:50;30.40;59.50
10903;DHT22;5504;47.312;11.060;2023-09-08T09:38:18;31.00;61.50
10903;DHT22;5504;47.312;11.060;2023-09-08T09:40:45;31.40;59.80
10903;DHT22;5504;47.312;11.060;2023-09-08T09:43:11;30.30;54.20
10903;DHT22;5504;47.312;11.060;2023-09-08T09:45:38;30.50;59.00
10903;DHT22;5504;47.312;11.060;2023-09-08T09:48:05;30.90;62.90
10903;DHT22;5504;47.312;11.060;2023-09-08T09:50:32;31.10;61.80
10903;DHT22;5504;47.312;11.060;2023-09-08T09:53:00;31.50;60.10
10903;DHT22;5504;47.312;11.060;2023-09-08T09:55:27;31.20;56.10
10903;DHT22;5504;47.312;11.060;2023-09-08T09:57:57;31.60;59.10
10903;DHT22;5504;47.312;11.060;2023-09-08T10:00:25;31.90;61.10
10903;DHT22;5504;47.312;11.060;2023-09-08T10:02:52;32.30;59.50
10903;DHT22;5504;47.312;11.060;2023-09-08T10:05:19;32.70;59.00
10903;DHT22;5504;47.312;11.060;2023-09-08T10:07:47;32.90;57.90
10903;DHT22;5504;47.312;11.060;2023-09-08T10:10:14;32.80;58.20
10903;DHT22;5504;47.312;11.060;2023-09-08T10:12:43;32.90;55.00
10903;DHT22;5504;47.312;11.060;2023-09-08T10:15:11;32.90;58.20
10903;DHT22;5504;47.312;11.060;2023-09-08T10:17:37;32.90;57.00
10903;DHT22;5504;47.312;11.060;2023-09-08T10:20:08;32.90;59.00
10903;DHT22;5504;47.312;11.060;2023-09-08T10:22:40;33.10;58.60
10903;DHT22;5504;47.312;11.060;2023-09-08T10:25:08;33.10;60.60
10903;DHT22;5504;47.312;11.060;2023-09-08T10:27:34;33.10;58.90
10903;DHT22;5504;47.312;11.060;2023-09-08T10:30:04;33.10;58.00
10903;DHT22;5504;47.312;11.060;2023-09-08T10:32:34;32.50;51.10
10903;DHT22;5504;47.312;11.060;2023-09-08T10:35:02;30.80;52.30
10903;DHT22;5504;47.312;11.060;2023-09-08T10:37:29;30.50;54.10
10903;DHT22;5504;47.312;11.060;2023-09-08T10:39:55;30.90;58.70
10903;DHT22;5504;47.312;11.060;2023-09-08T10:42:26;31.60;57.20
10903;DHT22;5504;47.312;11.060;2023-09-08T10:44:58;32.00;56.40
10903;DHT22;5504;47.312;11.060;2023-09-08T10:50:18;31.90;55.20
10903;DHT22;5504;47.312;11.060;2023-09-08T10:52:45;32.40;56.70
10903;DHT22;5504;47.312;11.060;2023-09-08T10:55:12;31.90;51.50
10903;DHT22;5504;47.312;11.060;2023-09-08T10:57:45;32.30;53.90
10903;DHT22;5504;47.312;11.060;2023-09-08T11:00:17;32.70;56.10
10903;DHT22;5504;47.312;11.060;2023-09-08T11:02:50;33.00;58.50
10903;DHT22;5504;47.312;11.060;2023-09-08T11:05:22;33.40;55.60
10903;DHT22;5504;47.312;11.060;2023-09-08T11:07:49;33.20;50.70
10903;DHT22;5504;47.312;11.060;2023-09-08T11:10:16;32.30;49.90
10903;DHT22;5504;47.312;11.060;2023-09-08T11:12:41;31.50;53.90
10903;DHT22;5504;47.312;11.060;2023-09-08T11:15:08;31.60;58.10
10903;DHT22;5504;47.312;11.060;2023-09-08T11:17:38;32.20;57.90
10903;DHT22;5504;47.312;11.060;2023-09-08T11:20:08;32.70;55.80
10903;DHT22;5504;47.312;11.060;2023-09-08T11:22:38;32.40;53.30
10903;DHT22;5504;47.312;11.060;2023-09-08T11:25:09;32.60;55.70
10903;DHT22;5504;47.312;11.060;2023-09-08T11:27:38;32.80;53.40
10903;DHT22;5504;47.312;11.060;2023-09-08T11:30:12;32.00;52.20
10903;DHT22;5504;47.312;11.060;2023-09-08T11:32:39;31.90;52.40
10903;DHT22;5504;47.312;11.060;2023-09-08T11:35:09;32.20;56.30
10903;DHT22;5504;47.312;11.060;2023-09-08T11:37:39;32.60;55.20
10903;DHT22;5504;47.312;11.060;2023-09-08T11:40:07;32.80;54.30
10903;DHT22;5504;47.312;11.060;2023-09-08T11:42:41;33.10;58.10
10903;DHT22;5504;47.312;11.060;2023-09-08T11:45:17;31.90;54.40
10903;DHT22;5504;47.312;11.060;2023-09-08T11:47:49;32.50;56.40
10903;DHT22;5504;47.312;11.060;2023-09-08T11:50:15;32.80;56.90
10903;DHT22;5504;47.312;11.060;2023-09-08T11:52:47;33.00;55.90
10903;DHT22;5504;47.312;11.060;2023-09-08T11:55:14;32.80;51.40
10903;DHT22;5504;47.312;11.060;2023-09-08T11:57:42;32.30;53.50
10903;DHT22;5504;47.312;11.060;2023-09-08T12:00:09;32.30;57.60
10903;DHT22;5504;47.312;11.060;2023-09-08T12:02:40;32.10;53.30
10903;DHT22;5504;47.312;11.060;2023-09-08T12:05:10;32.00;57.10
10903;DHT22;5504;47.312;11.060;2023-09-08T12:07:37;31.70;58.10
10903;DHT22;5504;47.312;11.060;2023-09-08T12:10:12;32.20;57.40
10903;DHT22;5504;47.312;11.060;2023-09-08T12:12:50;32.40;55.40
10903;DHT22;5504;47.312;11.060;2023-09-08T12:15:36;32.30;55.60
10903;DHT22;5504;47.312;11.060;2023-09-08T12:18:13;32.90;56.90
10903;DHT22;5504;47.312;11.060;2023-09-08T12:20:41;33.10;54.20
10903;DHT22;5504;47.312;11.060;2023-09-08T12:23:18;33.20;53.60
10903;DHT22;5504;47.312;11.060;2023-09-08T12:25:51;33.20;53.10
10903;DHT22;5504;47.312;11.060;2023-09-08T12:28:19;32.90;52.40
10903;DHT22;5504;47.312;11.060;2023-09-08T12:30:44;33.10;54.90
10903;DHT22;5504;47.312;11.060;2023-09-08T12:33:10;33.10;50.70
10903;DHT22;5504;47.312;11.060;2023-09-08T12:35:36;33.00;53.70
10903;DHT22;5504;47.312;11.060;2023-09-08T12:38:05;32.50;50.60
10903;DHT22;5504;47.312;11.060;2023-09-08T12:40:38;32.50;53.50
10903;DHT22;5504;47.312;11.060;2023-09-08T12:43:05;32.70;53.50
10903;DHT22;5504;47.312;11.060;2023-09-08T12:45:32;32.80;55.70
10903;DHT22;5504;47.312;11.060;2023-09-08T12:48:00;32.80;53.10
10903;DHT22;5504;47.312;11.060;2023-09-08T12:50:27;32.20;50.90
10903;DHT22;5504;47.312;11.060;2023-09-08T12:52:52;31.60;51.40
10903;DHT22;5504;47.312;11.060;2023-09-08T12:55:19;31.50;53.30
10903;DHT22;5504;47.312;11.060;2023-09-08T12:57:45;31.70;53.40
10903;DHT22;5504;47.312;11.060;2023-09-08T13:00:12;32.20;58.30
10903;DHT22;5504;47.312;11.060;2023-09-08T13:02:38;32.40;56.30
10903;DHT22;5504;47.312;11.060;2023-09-08T13:05:04;32.50;54.40
10903;DHT22;5504;47.312;11.060;2023-09-08T13:07:29;32.60;55.40
10903;DHT22;5504;47.312;11.060;2023-09-08T13:09:56;32.70;54.40
10903;DHT22;5504;47.312;11.060;2023-09-08T13:12:21;32.80;55.90
10903;DHT22;5504;47.312;11.060;2023-09-08T13:14:47;32.90;55.00
10903;DHT22;5504;47.312;11.060;2023-09-08T13:17:13;32.90;56.60
10903;DHT22;5504;47.312;11.060;2023-09-08T13:19:43;32.90;54.80
10903;DHT22;5504;47.312;11.060;2023-09-08T13:22:09;32.90;54.10
10903;DHT22;5504;47.312;11.060;2023-09-08T13:24:35;32.90;53.10
10903;DHT22;5504;47.312;11.060;2023-09-08T13:27:01;32.80;54.40
10903;DHT22;5504;47.312;11.060;2023-09-08T13:29:27;32.80;56.10
10903;DHT22;5504;47.312;11.060;2023-09-08T13:31:54;32.90;56.10
10903;DHT22;5504;47.312;11.060;2023-09-08T13:34:20;32.90;56.40
10903;DHT22;5504;47.312;11.060;2023-09-08T13:36:47;32.70;54.80
10903;DHT22;5504;47.312;11.060;2023-09-08T13:39:12;32.80;55.80
10903;DHT22;5504;47.312;11.060;2023-09-08T13:41:51;32.70;56.20
10903;DHT22;5504;47.312;11.060;2023-09-08T13:44:18;32.60;55.10
10903;DHT22;5504;47.312;11.060;2023-09-08T13:46:49;32.50;54.20
10903;DHT22;5504;47.312;11.060;2023-09-08T13:49:15;32.40;54.50
10903;DHT22;5504;47.312;11.060;2023-09-08T13:51:41;32.40;56.00
10903;DHT22;5504;47.312;11.060;2023-09-08T13:54:08;32.50;56.30
10903;DHT22;5504;47.312;11.060;2023-09-08T13:56:34;32.30;54.90
10903;DHT22;5504;47.312;11.060;2023-09-08T13:59:03;32.20;54.60
10903;DHT22;5504;47.312;11.060;2023-09-08T14:01:28;32.20;55.80
10903;DHT22;5504;47.312;11.060;2023-09-08T14:03:55;32.10;54.70
10903;DHT22;5504;47.312;11.060;2023-09-08T14:06:22;32.10;55.10
10903;DHT22;5504;47.312;11.060;2023-09-08T14:08:48;32.10;54.60
10903;DHT22;5504;47.312;11.060;2023-09-08T14:11:14;32.00;54.80
10903;DHT22;5504;47.312;11.060;2023-09-08T14:13:39;32.00;54.40
10903;DHT22;5504;47.312;11.060;2023-09-08T14:16:05;32.00;55.80
10903;DHT22;5504;47.312;11.060;2023-09-08T14:18:31;31.90;54.20
10903;DHT22;5504;47.312;11.060;2023-09-08T14:20:57;32.00;55.00
10903;DHT22;5504;47.312;11.060;2023-09-08T14:23:22;32.00;56.10
10903;DHT22;5504;47.312;11.060;2023-09-08T14:25:48;31.90;57.10
10903;DHT22;5504;47.312;11.060;2023-09-08T14:28:14;31.80;56.00
10903;DHT22;5504;47.312;11.060;2023-09-08T14:30:39;31.90;55.00
10903;DHT22;5504;47.312;11.060;2023-09-08T14:33:06;31.90;56.40
10903;DHT22;5504;47.312;11.060;2023-09-08T14:35:32;32.00;57.30
10903;DHT22;5504;47.312;11.060;2023-09-08T14:37:58;32.00;56.90
10903;DHT22;5504;47.312;11.060;2023-09-08T14:40:24;31.80;56.10
10903;DHT22;5504;47.312;11.060;2023-09-08T14:42:50;31.70;54.70
10903;DHT22;5504;47.312;11.060;2023-09-08T14:45:15;31.70;56.30
10903;DHT22;5504;47.312;11.060;2023-09-08T14:47:41;31.60;56.20
10903;DHT22;5504;47.312;11.060;2023-09-08T14:50:07;31.60;56.10
10903;DHT22;5504;47.312;11.060;2023-09-08T14:52:33;31.50;57.50
10903;DHT22;5504;47.312;11.060;2023-09-08T14:55:01;31.50;58.00
10903;DHT22;5504;47.312;11.060;2023-09-08T14:57:27;31.60;57.40
10903;DHT22;5504;47.312;11.060;2023-09-08T14:59:52;31.50;57.30
10903;DHT22;5504;47.312;11.060;2023-09-08T15:02:21;31.50;56.70
10903;DHT22;5504;47.312;11.060;2023-09-08T15:04:48;31.50;56.90
10903;DHT22;5504;47.312;11.060;2023-09-08T15:07:13;31.30;57.10
10903;DHT22;5504;47.312;11.060;2023-09-08T15:09:39;31.20;56.80
10903;DHT22;5504;47.312;11.060;2023-09-08T15:12:05;31.10;57.70
10903;DHT22;5504;47.312;11.060;2023-09-08T15:14:31;30.90;57.20
10903;DHT22;5504;47.312;11.060;2023-09-08T15:16:57;31.00;58.60
10903;DHT22;5504;47.312;11.060;2023-09-08T15:19:22;30.90;58.30
10903;DHT22;5504;47.312;11.060;2023-09-08T15:21:48;31.00;57.90
10903;DHT22;5504;47.312;11.060;2023-09-08T15:24:14;31.00;57.70
10903;DHT22;5504;47.312;11.060;2023-09-08T15:26:40;31.00;57.70
10903;DHT22;5504;47.312;11.060;2023-09-08T15:29:06;30.90;58.00
10903;DHT22;5504;47.312;11.060;2023-09-08T15:31:31;30.90;57.60
10903;DHT22;5504;47.312;11.060;2023-09-08T15:33:57;30.90;60.00